Time;durP1;ratioP1;P1;durP2;ratioP2;P2;SDS_P1;SDS_P2;PMS_P1;PMS_P2;Temp;Humidity;BMP_temperature;BMP_pressure;BME280_temperature;BME280_humidity;BME280_pressure;Samples;Min_cycle;Max_cycle;Signal;HPM_P1;HPM_P2
2022/07/23 00:01:15;;;;;;;0.98;0.70;;;;;;;27.28;43.20;101795.50;5028389;28;20028;-75
2022/07/23 00:03:40;;;;;;;1.15;0.70;;;;;;;27.27;43.28;101792.88;5029162;28;20033;-75
2022/07/23 00:06:06;;;;;;;1.13;0.75;;;;;;;27.27;43.01;101799.09;5028299;28;20029;-75
2022/07/23 00:08:31;;;;;;;0.98;0.75;;;;;;;27.30;43.02;101804.34;5028363;28;20388;-75
2022/07/23 00:10:56;;;;;;;0.82;0.63;;;;;;;27.26;43.54;101802.75;5029501;28;20068;-75
2022/07/23 00:13:22;;;;;;;0.93;0.70;;;;;;;27.24;43.22;101803.72;5029330;28;20053;-75
2022/07/23 00:15:47;;;;;;;1.05;0.70;;;;;;;27.24;43.31;101809.09;5029492;28;20037;-75
2022/07/23 00:18:12;;;;;;;0.98;0.80;;;;;;;27.24;42.87;101811.75;5028350;28;20044;-75
2022/07/23 00:20:38;;;;;;;1.10;0.75;;;;;;;27.24;43.27;101796.56;5029398;28;20063;-75
2022/07/23 00:23:03;;;;;;;2.15;0.80;;;;;;;27.22;43.54;101794.88;5029674;28;20049;-74
2022/07/23 00:25:28;;;;;;;0.98;0.70;;;;;;;27.23;43.21;101796.63;5011527;28;20044;-75
2022/07/23 00:27:54;;;;;;;1.00;0.70;;;;;;;27.22;43.22;101792.19;5027791;28;20057;-74
2022/07/23 00:30:19;;;;;;;0.82;0.70;;;;;;;27.24;43.13;101793.00;5029571;28;20072;-75
2022/07/23 00:32:47;;;;;;;1.05;0.70;;;;;;;27.23;43.05;101789.47;5029161;28;20030;-76
2022/07/23 00:35:12;;;;;;;1.00;0.70;;;;;;;27.20;43.32;101789.56;5029365;28;20025;-76
2022/07/23 00:37:38;;;;;;;1.13;0.80;;;;;;;27.20;43.23;101794.94;5027800;28;20120;-75
2022/07/23 00:40:04;;;;;;;1.13;0.70;;;;;;;27.22;43.18;101793.06;5028915;28;20079;-76
2022/07/23 00:42:31;;;;;;;0.80;0.70;;;;;;;27.20;43.05;101792.25;5029172;28;20048;-75
2022/07/23 00:44:56;;;;;;;0.80;0.70;;;;;;;27.20;43.04;101794.09;5029396;28;20063;-75
2022/07/23 00:47:21;;;;;;;0.75;0.70;;;;;;;27.20;43.01;101792.25;5027119;28;20025;-75
2022/07/23 00:49:48;;;;;;;1.30;0.80;;;;;;;27.20;43.20;101786.06;5029232;28;20484;-75
2022/07/23 00:52:13;;;;;;;1.95;0.80;;;;;;;27.17;43.32;101791.53;5028980;28;20496;-75
2022/07/23 00:54:39;;;;;;;1.63;0.80;;;;;;;27.18;43.17;101790.59;5029176;28;20034;-75
2022/07/23 00:57:04;;;;;;;1.15;0.88;;;;;;;27.18;43.25;101791.47;5029988;28;20210;-75
2022/07/23 00:59:30;;;;;;;1.00;0.80;;;;;;;27.16;43.00;101795.13;5032667;28;20057;-75
2022/07/23 01:01:55;;;;;;;1.55;0.80;;;;;;;27.16;43.27;101796.00;5032837;28;20040;-74
2022/07/23 01:04:20;;;;;;;1.83;0.80;;;;;;;27.14;43.23;101792.50;5033168;28;20029;-75
2022/07/23 01:06:46;;;;;;;1.02;0.70;;;;;;;27.14;43.08;101797.00;5031996;28;20118;-75
2022/07/23 01:09:12;;;;;;;1.48;0.80;;;;;;;27.13;43.26;101787.25;5032464;28;20041;-75
2022/07/23 01:11:38;;;;;;;0.80;0.65;;;;;;;27.13;43.20;101781.88;5031468;28;20036;-75
2022/07/23 01:14:11;;;;;;;0.98;0.70;;;;;;;27.15;43.11;101782.66;5033052;28;20083;-75
2022/07/23 01:16:37;;;;;;;2.15;0.80;;;;;;;27.13;43.08;101777.41;5031211;28;20108;-75
2022/07/23 01:19:04;;;;;;;0.80;0.70;;;;;;;27.13;43.29;101774.72;5031172;28;20182;-75
2022/07/23 01:21:30;;;;;;;1.70;0.77;;;;;;;27.09;42.97;101767.72;5032747;28;20036;-75
2022/07/23 01:23:55;;;;;;;1.45;0.70;;;;;;;27.08;43.28;101779.38;5032655;28;20033;-75
2022/07/23 01:26:21;;;;;;;0.90;0.70;;;;;;;27.09;43.24;101780.25;5032483;28;20044;-75
2022/07/23 01:28:46;;;;;;;0.77;0.68;;;;;;;27.09;43.24;101773.09;5031023;28;20029;-75
2022/07/23 01:31:12;;;;;;;0.90;0.70;;;;;;;27.08;43.11;101768.66;5032352;28;20029;-75
2022/07/23 01:33:37;;;;;;;0.93;0.70;;;;;;;27.05;43.26;101772.34;5031449;28;20160;-75
2022/07/23 01:36:03;;;;;;;0.90;0.80;;;;;;;27.06;43.15;101773.22;5030886;28;20033;-75
2022/07/23 01:38:28;;;;;;;1.00;0.70;;;;;;;27.02;43.41;101769.78;5031867;28;20034;-75
2022/07/23 01:40:54;;;;;;;1.17;0.70;;;;;;;27.03;43.12;101762.63;5032509;28;20048;-75
2022/07/23 01:43:19;;;;;;;1.02;0.75;;;;;;;27.03;43.18;101763.50;4998476;28;20035;-75
2022/07/23 01:45:44;;;;;;;1.13;0.80;;;;;;;27.03;43.22;101767.97;5032124;28;20033;-75
2022/07/23 01:48:10;;;;;;;1.15;0.70;;;;;;;27.03;43.16;101752.81;5032235;28;20871;-75
2022/07/23 01:50:35;;;;;;;1.13;0.77;;;;;;;27.02;43.26;101752.84;5031436;28;20128;-75
2022/07/23 01:53:01;;;;;;;1.67;0.70;;;;;;;27.03;43.26;101755.47;5030747;28;20037;-75
2022/07/23 01:55:26;;;;;;;1.30;0.80;;;;;;;27.04;43.06;101751.00;5030784;28;20068;-75
2022/07/23 01:57:51;;;;;;;1.42;0.80;;;;;;;27.03;43.14;101751.94;5011564;28;20050;-75
2022/07/23 02:00:17;;;;;;;0.80;0.70;;;;;;;27.02;43.10;101751.06;5032231;28;20567;-75
2022/07/23 02:02:42;;;;;;;0.95;0.70;;;;;;;27.03;43.15;101749.25;5029988;28;20132;-75
2022/07/23 02:05:08;;;;;;;1.00;0.70;;;;;;;27.00;43.11;101744.91;5031989;28;20484;-75
2022/07/23 02:07:33;;;;;;;0.80;0.70;;;;;;;27.00;43.37;101749.41;5031920;28;20052;-75
2022/07/23 02:09:59;;;;;;;0.80;0.60;;;;;;;27.02;43.01;101737.66;5029824;28;20037;-75
2022/07/23 02:12:24;;;;;;;1.00;0.70;;;;;;;27.03;43.09;101743.91;5031167;28;20468;-75
2022/07/23 02:14:49;;;;;;;0.88;0.63;;;;;;;27.00;43.15;101741.38;5032119;28;20039;-75
2022/07/23 02:17:15;;;;;;;1.25;0.77;;;;;;;27.00;43.16;101731.53;5030143;28;20052;-75
2022/07/23 02:19:40;;;;;;;0.90;0.70;;;;;;;26.99;43.03;101732.47;5030370;28;20044;-75
2022/07/23 02:22:05;;;;;;;1.55;0.80;;;;;;;26.98;43.07;101735.19;5029726;28;20033;-75
2022/07/23 02:24:31;;;;;;;0.75;0.60;;;;;;;26.95;43.07;101725.50;5031410;28;20037;-75
2022/07/23 02:26:56;;;;;;;1.23;0.80;;;;;;;26.96;43.24;101734.38;5031686;28;20037;-75
2022/07/23 02:29:21;;;;;;;0.70;0.65;;;;;;;26.96;43.05;101735.25;5031614;28;20037;-75
2022/07/23 02:31:47;;;;;;;0.80;0.68;;;;;;;26.95;43.12;101729.97;5031057;28;20095;-75
2022/07/23 02:34:12;;;;;;;0.70;0.60;;;;;;;26.97;43.04;101730.78;5013357;28;20107;-75
2022/07/23 02:36:39;;;;;;;0.90;0.60;;;;;;;26.97;43.10;101730.78;5031333;28;20036;-75
2022/07/23 02:39:04;;;;;;;0.75;0.70;;;;;;;26.94;42.79;101731.78;5031147;28;20094;-75
2022/07/23 02:41:30;;;;;;;1.13;0.70;;;;;;;26.94;43.09;101728.25;5031489;28;20037;-75
2022/07/23 02:43:55;;;;;;;1.08;0.80;;;;;;;26.94;42.92;101733.59;5013136;28;20033;-75
2022/07/23 02:46:20;;;;;;;0.77;0.60;;;;;;;26.96;43.24;101723.66;5031229;28;20045;-76
2022/07/23 02:48:46;;;;;;;0.70;0.70;;;;;;;26.94;42.79;101725.56;5031080;28;20480;-75
2022/07/23 02:51:11;;;;;;;0.82;0.70;;;;;;;26.93;43.15;101729.16;5030692;28;20125;-75
2022/07/23 02:53:36;;;;;;;0.80;0.65;;;;;;;26.93;43.11;101726.50;5031125;28;20029;-75
2022/07/23 02:56:02;;;;;;;0.85;0.70;;;;;;;26.92;43.20;101730.09;5031135;28;20120;-75
2022/07/23 02:58:27;;;;;;;1.30;0.70;;;;;;;26.94;43.18;101736.25;5029778;28;20073;-75
2022/07/23 03:00:53;;;;;;;1.08;0.80;;;;;;;26.93;42.87;101739.88;5030017;28;20025;-75
2022/07/23 03:03:19;;;;;;;2.10;0.80;;;;;;;26.90;42.79;101740.84;5030846;28;20028;-75
2022/07/23 03:05:44;;;;;;;0.68;0.60;;;;;;;26.91;43.01;101741.72;5012876;28;20064;-75
2022/07/23 03:08:09;;;;;;;1.05;0.70;;;;;;;26.90;42.89;101743.53;5030674;28;20042;-75
2022/07/23 03:10:35;;;;;;;1.00;0.80;;;;;;;26.91;42.96;101741.72;5028865;28;20029;-75
2022/07/23 03:13:00;;;;;;;1.00;0.80;;;;;;;26.89;43.03;101741.81;5030782;28;20064;-75
2022/07/23 03:15:25;;;;;;;1.00;0.70;;;;;;;26.91;42.90;101747.06;5030514;28;20029;-75
2022/07/23 03:17:51;;;;;;;1.48;0.75;;;;;;;26.88;43.02;101749.84;5029574;28;20056;-75
2022/07/23 03:20:16;;;;;;;0.65;0.60;;;;;;;26.87;42.90;101748.13;5029643;28;20060;-75
2022/07/23 03:22:42;;;;;;;0.80;0.60;;;;;;;26.87;43.05;101754.34;5028504;28;20040;-75
2022/07/23 03:25:08;;;;;;;0.70;0.60;;;;;;;26.85;42.98;101740.13;5029958;28;20080;-75
2022/07/23 03:27:33;;;;;;;1.60;0.80;;;;;;;26.84;42.96;101743.75;5030222;28;20033;-75
2022/07/23 03:29:59;;;;;;;0.90;0.70;;;;;;;26.84;43.07;101746.41;5030166;28;20422;-75
2022/07/23 03:32:26;;;;;;;0.90;0.68;;;;;;;26.85;42.93;101750.84;5029066;28;20104;-75
2022/07/23 03:34:51;;;;;;;0.70;0.63;;;;;;;26.84;43.06;101742.88;5030401;28;20029;-75
2022/07/23 03:37:18;;;;;;;1.10;0.80;;;;;;;26.81;43.03;101741.22;5029665;28;20029;-75
2022/07/23 03:39:44;;;;;;;0.65;0.60;;;;;;;26.83;42.88;101736.69;5030183;28;20030;-75
2022/07/23 03:42:15;;;;;;;0.70;0.63;;;;;;;26.82;42.92;101731.38;5083095;28;20464;-76
2022/07/23 03:44:41;;;;;;;0.80;0.70;;;;;;;26.82;42.95;101729.56;5075208;28;20052;-76
2022/07/23 03:47:06;;;;;;;0.80;0.70;;;;;;;26.81;43.07;101729.63;5082090;28;20108;-76
2022/07/23 03:49:33;;;;;;;1.05;0.75;;;;;;;26.81;42.87;101730.50;5067772;28;20059;-76
2022/07/23 03:51:58;;;;;;;1.13;0.80;;;;;;;26.81;43.00;101727.84;5075306;28;20047;-77
2022/07/23 03:54:23;;;;;;;0.70;0.68;;;;;;;26.82;42.93;101734.06;5065976;28;20678;-76
2022/07/23 03:56:49;;;;;;;0.70;0.60;;;;;;;26.78;42.85;101732.41;5058889;28;20032;-76
2022/07/23 03:59:14;;;;;;;0.77;0.60;;;;;;;26.80;42.84;101733.22;5064757;28;20033;-76
2022/07/23 04:01:40;;;;;;;0.85;0.70;;;;;;;26.76;43.08;101742.31;5076099;28;20075;-76
2022/07/23 04:04:05;;;;;;;1.17;0.63;;;;;;;26.78;42.91;101743.13;5070558;28;20045;-76
2022/07/23 04:06:32;;;;;;;0.80;0.60;;;;;;;26.77;42.76;101742.28;5064694;28;20059;-76
2022/07/23 04:08:57;;;;;;;1.35;0.80;;;;;;;26.76;43.01;101742.31;5068905;28;20038;-76
2022/07/23 04:11:23;;;;;;;0.90;0.70;;;;;;;26.75;42.93;101740.56;5076633;28;20375;-76
2022/07/23 04:13:48;;;;;;;1.00;0.80;;;;;;;26.73;43.09;101735.28;5084649;28;20024;-76
2022/07/23 04:16:14;;;;;;;0.93;0.70;;;;;;;26.75;42.93;101740.56;5078453;28;20044;-76
2022/07/23 04:18:39;;;;;;;0.80;0.70;;;;;;;26.72;42.92;101744.22;5065855;28;20032;-76
2022/07/23 04:21:05;;;;;;;0.68;0.60;;;;;;;26.75;42.81;101740.56;5065080;28;20493;-76
2022/07/23 04:23:30;;;;;;;0.80;0.70;;;;;;;26.71;42.75;101739.84;5079349;28;20025;-75
2022/07/23 04:25:55;;;;;;;0.70;0.60;;;;;;;26.72;43.12;101744.22;5078398;28;20478;-76
2022/07/23 04:28:21;;;;;;;0.82;0.70;;;;;;;26.70;42.92;101737.22;5065345;28;20368;-76
2022/07/23 04:30:47;;;;;;;0.75;0.60;;;;;;;26.70;43.34;101739.91;5065321;28;20463;-75
2022/07/23 04:33:12;;;;;;;1.20;0.77;;;;;;;26.69;43.09;101741.69;5065349;28;20041;-76
2022/07/23 04:35:39;;;;;;;0.90;0.70;;;;;;;26.68;42.95;101734.59;5054787;28;20093;-76
2022/07/23 04:38:04;;;;;;;0.68;0.60;;;;;;;26.66;43.15;101741.81;5071271;28;20103;-76
2022/07/23 04:40:30;;;;;;;0.82;0.60;;;;;;;26.67;42.97;101746.22;5067771;28;20140;-76
2022/07/23 04:42:56;;;;;;;0.70;0.65;;;;;;;26.65;42.89;101746.28;5078663;28;20078;-76
2022/07/23 04:45:23;;;;;;;0.90;0.60;;;;;;;26.64;43.01;101744.56;5072151;28;20087;-76
2022/07/23 04:47:49;;;;;;;0.77;0.68;;;;;;;26.64;42.91;101754.38;5074526;28;20024;-77
2022/07/23 04:50:18;;;;;;;0.70;0.60;;;;;;;26.60;43.05;101758.09;5065071;28;20082;-75
2022/07/23 04:52:44;;;;;;;0.70;0.60;;;;;;;26.53;43.32;101756.63;5055227;28;20047;-77
2022/07/23 04:55:09;;;;;;;1.08;0.70;;;;;;;26.51;43.36;101753.13;5050601;28;20029;-77
2022/07/23 04:57:35;;;;;;;0.70;0.60;;;;;;;26.53;43.41;101753.94;5051801;28;20098;-77
2022/07/23 05:00:00;;;;;;;0.70;0.60;;;;;;;26.51;43.18;101754.00;5050263;28;20060;-77
2022/07/23 05:02:25;;;;;;;0.70;0.70;;;;;;;26.51;43.23;101747.78;5050255;28;20043;-77
2022/07/23 05:04:51;;;;;;;0.90;0.68;;;;;;;26.48;43.35;101750.53;5050390;28;20032;-77
2022/07/23 05:07:16;;;;;;;0.88;0.70;;;;;;;26.48;43.31;101748.75;5061663;28;20040;-77
2022/07/23 05:09:41;;;;;;;0.60;0.57;;;;;;;26.52;43.20;101745.03;5071763;28;20052;-75
2022/07/23 05:12:07;;;;;;;1.33;0.73;;;;;;;26.48;43.38;101743.41;5071386;28;20052;-77
2022/07/23 05:14:32;;;;;;;1.25;0.70;;;;;;;26.50;43.39;101754.91;5069765;28;20040;-77
2022/07/23 05:16:58;;;;;;;0.80;0.80;;;;;;;26.52;43.24;101754.88;5051363;28;20483;-77
2022/07/23 05:19:23;;;;;;;1.00;0.60;;;;;;;26.52;43.16;101755.75;5066147;28;20060;-77
2022/07/23 05:21:49;;;;;;;1.20;0.80;;;;;;;26.58;43.08;101762.66;5070909;28;20044;-77
2022/07/23 05:24:14;;;;;;;0.60;0.60;;;;;;;26.67;43.28;101755.13;5071049;28;20028;-77
2022/07/23 05:26:39;;;;;;;1.33;0.70;;;;;;;26.60;42.88;101761.66;5069622;28;20494;-77
2022/07/23 05:29:05;;;;;;;0.77;0.70;;;;;;;26.66;43.12;101758.72;5050107;28;20471;-77
2022/07/23 05:31:30;;;;;;;0.68;0.60;;;;;;;26.65;42.96;101764.16;5033227;28;20067;-77
2022/07/23 05:33:56;;;;;;;0.80;0.60;;;;;;;26.67;42.78;101763.16;5051337;28;20431;-77
2022/07/23 05:36:21;;;;;;;0.80;0.65;;;;;;;26.67;42.94;101760.47;5050938;28;20062;-77
2022/07/23 05:38:46;;;;;;;1.13;0.70;;;;;;;26.67;42.93;101768.50;5035215;28;20037;-77
2022/07/23 05:41:12;;;;;;;0.90;0.70;;;;;;;26.69;42.90;101763.09;5067577;28;20045;-77
2022/07/23 05:43:37;;;;;;;1.08;0.70;;;;;;;26.71;42.92;101769.28;5051025;28;20119;-77
2022/07/23 05:46:02;;;;;;;1.10;0.70;;;;;;;26.70;43.12;101766.66;5070403;28;20042;-76
2022/07/23 05:48:28;;;;;;;1.10;0.75;;;;;;;26.71;42.88;101768.41;5070574;28;20424;-77
2022/07/23 05:50:53;;;;;;;0.82;0.60;;;;;;;26.71;43.00;101776.41;5070375;28;20108;-77
2022/07/23 05:53:19;;;;;;;0.70;0.70;;;;;;;26.72;42.99;101771.00;5070799;28;20032;-77
2022/07/23 05:55:44;;;;;;;1.00;0.70;;;;;;;26.72;43.15;101781.69;5053469;28;20036;-77
2022/07/23 05:58:09;;;;;;;1.00;0.80;;;;;;;26.83;42.86;101775.94;5049287;28;20494;-77
2022/07/23 06:00:35;;;;;;;1.40;0.73;;;;;;;26.99;42.59;101782.44;5060415;28;20034;-77
2022/07/23 06:03:00;;;;;;;0.75;0.60;;;;;;;27.14;42.27;101787.16;5061249;28;20033;-77
2022/07/23 06:05:26;;;;;;;0.60;0.60;;;;;;;27.26;42.13;101781.31;5069344;28;20054;-77
2022/07/23 06:07:52;;;;;;;0.95;0.70;;;;;;;27.32;41.81;101785.53;5068959;28;20063;-78
2022/07/23 06:10:18;;;;;;;0.80;0.65;;;;;;;27.37;41.70;101787.09;5067473;28;20106;-77
2022/07/23 06:12:44;;;;;;;0.50;0.50;;;;;;;27.45;41.76;101778.72;5066677;28;20025;-77
2022/07/23 06:15:10;;;;;;;0.90;0.70;;;;;;;27.48;41.69;101791.13;5070285;28;20103;-77
2022/07/23 06:17:35;;;;;;;0.70;0.60;;;;;;;27.55;41.45;101790.84;5069066;28;20066;-77
2022/07/23 06:20:01;;;;;;;0.90;0.60;;;;;;;27.63;41.22;101794.03;5070014;28;20103;-77
2022/07/23 06:22:26;;;;;;;0.65;0.60;;;;;;;27.63;41.30;101794.03;5070099;28;20025;-78
2022/07/23 06:24:51;;;;;;;0.50;0.50;;;;;;;27.63;41.21;101790.50;5070177;28;20036;-78
2022/07/23 06:27:17;;;;;;;0.50;0.50;;;;;;;27.64;41.42;101784.19;5062632;28;20029;-76
2022/07/23 06:29:43;;;;;;;3.38;0.70;;;;;;;27.64;41.10;101785.06;5049766;28;20036;-78
2022/07/23 06:32:08;;;;;;;0.88;0.70;;;;;;;27.65;41.28;101788.63;5049713;28;20035;-78
2022/07/23 06:34:34;;;;;;;0.68;0.52;;;;;;;27.65;41.42;101791.28;5049861;28;20037;-78
2022/07/23 06:37:00;;;;;;;2.35;0.50;;;;;;;27.58;41.36;101796.03;5049931;28;20494;-77
2022/07/23 06:39:25;;;;;;;0.82;0.65;;;;;;;27.58;41.49;101790.69;5058096;28;20115;-77
2022/07/23 06:41:51;;;;;;;1.40;0.60;;;;;;;27.55;41.78;101789.97;5056689;28;20056;-78
2022/07/23 06:44:16;;;;;;;0.93;0.70;;;;;;;27.53;41.73;101798.03;5061136;28;20036;-77
2022/07/23 06:46:41;;;;;;;0.70;0.60;;;;;;;27.53;41.73;101798.03;5069649;28;20081;-78
2022/07/23 06:49:07;;;;;;;0.77;0.63;;;;;;;27.50;41.66;101805.31;5069555;28;20064;-77
2022/07/23 06:51:32;;;;;;;1.10;0.60;;;;;;;27.51;41.72;101799.91;5069492;28;20436;-78
2022/07/23 06:53:58;;;;;;;1.80;0.70;;;;;;;27.50;41.91;101806.19;5064383;28;20049;-78
2022/07/23 06:56:24;;;;;;;0.75;0.70;;;;;;;27.50;41.80;101805.31;5048260;28;20508;-77
2022/07/23 06:58:49;;;;;;;0.60;0.60;;;;;;;27.49;41.75;101817.84;5048484;28;20482;-78
2022/07/23 07:01:14;;;;;;;0.85;0.70;;;;;;;27.52;41.91;101819.53;5047917;28;20033;-78
2022/07/23 07:03:40;;;;;;;1.00;0.70;;;;;;;27.48;42.04;101816.09;5049331;28;20031;-77
2022/07/23 07:06:05;;;;;;;0.60;0.52;;;;;;;27.50;42.00;101824.94;5049190;28;20463;-78
2022/07/23 07:08:31;;;;;;;0.80;0.63;;;;;;;27.52;42.12;101823.09;5064253;28;20430;-77
2022/07/23 07:10:56;;;;;;;0.80;0.55;;;;;;;27.55;42.00;101828.34;5069494;28;20040;-78
2022/07/23 07:13:21;;;;;;;0.82;0.60;;;;;;;27.56;41.90;101824.72;5069113;28;20565;-77
2022/07/23 07:15:47;;;;;;;1.88;0.60;;;;;;;27.56;42.12;101823.84;5068641;28;20074;-77
2022/07/23 07:18:12;;;;;;;1.05;0.70;;;;;;;27.58;42.24;101822.81;5069297;28;20037;-77
2022/07/23 07:20:37;;;;;;;0.70;0.60;;;;;;;27.60;41.94;101830.81;5068975;28;20422;-78
2022/07/23 07:23:03;;;;;;;0.60;0.60;;;;;;;27.62;42.09;101836.97;5069084;28;20036;-78
2022/07/23 07:25:28;;;;;;;0.80;0.60;;;;;;;27.62;41.90;101836.97;5068968;28;20119;-77
2022/07/23 07:27:54;;;;;;;0.70;0.60;;;;;;;27.61;42.06;101835.22;5069295;28;20035;-78
2022/07/23 07:30:19;;;;;;;0.70;0.65;;;;;;;27.64;41.95;101838.63;5068700;28;20107;-78
2022/07/23 07:32:44;;;;;;;1.48;0.60;;;;;;;27.66;42.02;101838.59;5067810;28;20482;-78
2022/07/23 07:35:10;;;;;;;1.95;0.63;;;;;;;27.69;41.93;101830.44;5060440;28;20463;-77
2022/07/23 07:37:35;;;;;;;0.60;0.60;;;;;;;27.69;42.20;101838.47;5068725;28;20498;-77
2022/07/23 07:40:02;;;;;;;0.70;0.60;;;;;;;27.73;41.78;101851.66;5054983;28;20505;-77
2022/07/23 07:42:27;;;;;;;0.65;0.60;;;;;;;27.73;41.80;101848.97;5049101;28;20447;-77
2022/07/23 07:44:53;;;;;;;1.00;0.60;;;;;;;27.76;42.11;101846.16;5049387;28;20106;-77
2022/07/23 07:47:18;;;;;;;0.88;0.60;;;;;;;27.77;42.15;101847.03;5055244;28;20414;-77
2022/07/23 07:49:44;;;;;;;0.70;0.60;;;;;;;27.74;42.24;101842.69;5068710;28;20122;-77
2022/07/23 07:52:09;;;;;;;0.70;0.50;;;;;;;27.78;42.14;101852.34;5067563;28;20170;-78
2022/07/23 07:54:36;;;;;;;1.02;0.70;;;;;;;27.77;41.86;101852.38;5061558;28;20116;-77
2022/07/23 07:57:01;;;;;;;0.82;0.63;;;;;;;27.75;42.17;101852.44;5065446;28;20077;-78
2022/07/23 07:59:26;;;;;;;0.82;0.70;;;;;;;27.78;42.22;101843.41;5066737;28;20037;-78
2022/07/23 08:01:52;;;;;;;1.00;0.70;;;;;;;27.79;42.25;101846.03;5055928;28;20067;-77
2022/07/23 08:04:17;;;;;;;0.70;0.60;;;;;;;27.82;42.27;101856.63;5047482;28;20425;-78
2022/07/23 08:06:43;;;;;;;0.98;0.68;;;;;;;27.80;41.96;101861.19;5048879;28;20021;-78
2022/07/23 08:09:08;;;;;;;0.70;0.60;;;;;;;27.82;42.13;101863.78;5048546;28;20668;-77
2022/07/23 08:11:33;;;;;;;0.93;0.68;;;;;;;27.83;42.02;101865.53;5048706;28;20025;-77
2022/07/23 08:13:59;;;;;;;0.77;0.63;;;;;;;27.84;42.02;101864.59;5048430;28;20028;-77
2022/07/23 08:16:24;;;;;;;0.52;0.50;;;;;;;27.86;41.82;101857.38;5030801;28;20032;-77
2022/07/23 08:18:50;;;;;;;0.70;0.70;;;;;;;27.85;42.12;101864.53;5048269;28;20163;-77
2022/07/23 08:21:15;;;;;;;0.63;0.57;;;;;;;27.84;41.99;101864.59;5048299;28;20467;-77
2022/07/23 08:23:40;;;;;;;0.73;0.60;;;;;;;27.85;41.87;101861.84;5050757;28;20037;-78
2022/07/23 08:26:06;;;;;;;0.60;0.60;;;;;;;27.87;41.79;101856.44;5067982;28;20800;-76
2022/07/23 08:28:34;;;;;;;0.50;0.50;;;;;;;27.87;41.98;101871.66;5070994;28;20036;-77
2022/07/23 08:31:00;;;;;;;0.63;0.60;;;;;;;27.90;41.97;101868.81;5071895;28;20028;-77
2022/07/23 08:33:25;;;;;;;0.80;0.60;;;;;;;27.89;41.91;101864.38;5070828;28;20024;-76
2022/07/23 08:35:52;;;;;;;1.08;0.70;;;;;;;27.90;42.05;101861.66;5072270;28;20044;-76
2022/07/23 08:38:20;;;;;;;0.85;0.50;;;;;;;27.89;42.09;101864.38;5068405;28;20115;-76
2022/07/23 08:40:52;;;;;;;1.13;0.60;;;;;;;27.89;42.23;101870.63;5068551;28;20055;-77
2022/07/23 08:43:20;;;;;;;0.82;0.60;;;;;;;27.89;42.22;101872.44;5071763;28;20032;-77
2022/07/23 08:45:48;;;;;;;0.85;0.70;;;;;;;27.91;41.98;101868.75;5071566;28;20043;-77
2022/07/23 08:48:17;;;;;;;1.45;0.60;;;;;;;27.93;42.02;101861.53;5069309;28;20063;-77
2022/07/23 08:50:45;;;;;;;0.65;0.55;;;;;;;27.93;41.91;101866.91;5052005;28;20392;-77
2022/07/23 08:53:11;;;;;;;0.60;0.50;;;;;;;27.93;41.94;101864.22;5051829;28;20370;-76
2022/07/23 08:55:37;;;;;;;1.83;0.70;;;;;;;27.93;41.95;101871.38;5063430;28;20106;-76
2022/07/23 08:58:02;;;;;;;1.00;0.50;;;;;;;27.94;41.88;101867.75;5045787;28;20033;-77
2022/07/23 09:00:29;;;;;;;0.80;0.60;;;;;;;27.94;42.07;101867.75;5033581;28;20052;-77
2022/07/23 09:02:54;;;;;;;1.27;0.60;;;;;;;27.94;42.17;101862.38;5060154;28;20024;-77
2022/07/23 09:05:20;;;;;;;0.70;0.60;;;;;;;27.91;41.78;101871.44;5070224;28;20024;-77
2022/07/23 09:08:10;;;;;;;0.60;0.60;;;;;;;27.92;41.94;101865.16;5071434;28;20473;-77
2022/07/23 09:10:50;;;;;;;1.45;0.60;;;;;;;27.96;41.89;101865.88;5052438;28;20461;-77
2022/07/23 09:13:38;;;;;;;0.70;0.60;;;;;;;27.96;41.85;101864.06;5051402;28;20120;-77
2022/07/23 09:16:10;;;;;;;0.65;0.50;;;;;;;27.95;42.13;101878.41;5051195;28;20025;-76
2022/07/23 09:18:53;;;;;;;0.70;0.60;;;;;;;27.94;41.74;101860.56;5063551;28;20094;-77
2022/07/23 09:21:28;;;;;;;0.77;0.60;;;;;;;27.96;42.21;101865.88;5069997;28;20032;-76
2022/07/23 09:23:55;;;;;;;0.65;0.60;;;;;;;27.94;41.95;101865.94;5051335;28;20025;-77
2022/07/23 09:26:41;;;;;;;0.60;0.50;;;;;;;27.99;41.92;101865.75;5058380;28;20039;-77
2022/07/23 09:29:09;;;;;;;1.10;0.60;;;;;;;28.01;41.67;101866.53;5069017;28;20039;-77
2022/07/23 09:31:46;;;;;;;0.60;0.60;;;;;;;28.02;41.79;101862.94;5051296;28;20060;-77
2022/07/23 09:34:23;;;;;;;0.88;0.60;;;;;;;27.99;41.95;101863.06;5050701;28;20386;-77
2022/07/23 09:36:50;;;;;;;0.50;0.50;;;;;;;27.98;41.94;101867.56;5049288;28;20071;-76
2022/07/23 09:39:34;;;;;;;0.65;0.50;;;;;;;27.98;41.76;101864.00;5064555;28;20028;-77
2022/07/23 09:42:22;;;;;;;0.93;0.63;;;;;;;27.98;41.85;101858.66;5048861;28;20548;-76
2022/07/23 09:44:49;;;;;;;1.02;0.50;;;;;;;27.99;41.96;101858.59;5069498;28;20032;-76
2022/07/23 09:47:16;;;;;;;0.90;0.60;;;;;;;27.96;42.04;101861.38;5062006;28;20037;-77
2022/07/23 09:49:57;;;;;;;1.27;0.50;;;;;;;27.99;42.11;101865.75;5049232;28;20498;-77
2022/07/23 09:52:30;;;;;;;0.70;0.60;;;;;;;27.99;42.13;101872.00;5050359;28;20040;-77
2022/07/23 09:55:00;;;;;;;0.88;0.60;;;;;;;27.99;41.97;101869.31;5050093;28;20048;-77
2022/07/23 09:57:27;;;;;;;0.73;0.50;;;;;;;27.99;42.12;101876.47;5043919;28;20028;-76
2022/07/23 09:59:52;;;;;;;0.55;0.50;;;;;;;27.99;41.81;101872.00;5063544;28;20033;-77
2022/07/23 10:02:19;;;;;;;0.93;0.50;;;;;;;27.97;41.73;101870.31;5070512;28;20070;-77
2022/07/23 10:04:46;;;;;;;0.68;0.60;;;;;;;27.99;41.90;101872.00;5061045;28;20041;-77
2022/07/23 10:07:16;;;;;;;0.60;0.50;;;;;;;28.00;41.96;101872.84;5049111;28;20040;-77
2022/07/23 10:09:43;;;;;;;0.60;0.50;;;;;;;28.02;41.60;101869.16;5050644;28;20104;-77
2022/07/23 10:14:45;;;;;;;0.90;0.60;;;;;;;28.02;41.98;101866.47;5070494;28;20044;-77
2022/07/23 10:17:11;;;;;;;0.70;0.60;;;;;;;28.00;41.97;101867.47;5056725;28;20058;-77
2022/07/23 10:19:36;;;;;;;0.98;0.65;;;;;;;28.01;41.74;101871.91;5048984;28;20116;-77
2022/07/23 10:22:12;;;;;;;1.20;0.60;;;;;;;28.03;41.71;101870.91;5057700;28;20024;-77
2022/07/23 10:24:53;;;;;;;1.15;0.60;;;;;;;28.06;41.90;101878.81;5070170;28;20046;-77
2022/07/23 10:27:43;;;;;;;0.63;0.60;;;;;;;28.02;41.77;101887.06;5061184;28;20094;-77
2022/07/23 10:30:27;;;;;;;0.50;0.50;;;;;;;28.03;41.97;101886.13;5064024;28;20033;-76
2022/07/23 10:33:22;;;;;;;0.80;0.60;;;;;;;28.05;41.76;101882.44;5069973;28;20031;-76
2022/07/23 10:35:59;;;;;;;0.60;0.60;;;;;;;28.03;41.84;101886.13;5052542;28;20089;-77
2022/07/23 10:38:30;;;;;;;0.68;0.55;;;;;;;28.05;41.51;101884.25;5051059;28;20040;-76
2022/07/23 10:41:01;;;;;;;0.77;0.60;;;;;;;28.03;41.66;101894.16;5069065;28;20040;-77
2022/07/23 10:43:28;;;;;;;0.68;0.50;;;;;;;28.05;42.02;101893.19;5069312;28;20063;-77
2022/07/23 10:45:55;;;;;;;0.50;0.50;;;;;;;28.05;41.94;101887.81;5063104;28;20020;-76
2022/07/23 10:48:26;;;;;;;0.65;0.50;;;;;;;28.05;41.88;101901.22;5049439;28;20041;-77
2022/07/23 10:51:12;;;;;;;0.70;0.60;;;;;;;28.06;41.81;101891.34;5048577;28;20033;-76
2022/07/23 10:53:58;;;;;;;0.60;0.55;;;;;;;28.09;42.07;101891.22;5049108;28;20104;-76
2022/07/23 10:56:54;;;;;;;0.60;0.60;;;;;;;28.06;41.82;101894.88;5044432;28;20032;-77
2022/07/23 10:59:20;;;;;;;0.70;0.50;;;;;;;28.10;41.70;101892.97;5052522;28;20024;-77
2022/07/23 11:01:45;;;;;;;0.70;0.60;;;;;;;28.09;41.71;101894.78;5069163;28;20028;-76
2022/07/23 11:04:12;;;;;;;0.60;0.50;;;;;;;28.10;41.55;101896.53;5067761;28;20032;-77
2022/07/23 11:06:50;;;;;;;0.50;0.50;;;;;;;28.12;41.80;101889.25;5067346;28;20036;-76
2022/07/23 11:09:37;;;;;;;0.57;0.50;;;;;;;28.14;41.77;101890.09;5068591;28;20032;-77
2022/07/23 11:12:21;;;;;;;1.10;0.70;;;;;;;28.14;41.86;101883.88;5058826;28;20074;-77
2022/07/23 11:15:04;;;;;;;0.80;0.60;;;;;;;28.14;41.67;101887.44;5068756;28;20033;-77
2022/07/23 11:17:31;;;;;;;0.95;0.60;;;;;;;28.14;41.44;101887.44;5048580;28;20111;-77
2022/07/23 11:20:09;;;;;;;0.50;0.50;;;;;;;28.16;41.83;101895.41;5048357;28;20054;-76
2022/07/23 11:22:35;;;;;;;0.80;0.60;;;;;;;28.13;41.79;101885.69;5048447;28;20525;-77
2022/07/23 11:25:01;;;;;;;2.25;0.60;;;;;;;28.15;41.56;101901.72;5048155;28;20048;-77
2022/07/23 11:27:43;;;;;;;0.60;0.60;;;;;;;28.15;41.57;101891.84;5058945;28;20070;-77